sensor_id;sensor_type;location;lat;lon;timestamp;temperature;humidity
506;DHT22;551;48.524;9.056;2024-03-08T00:00:34;5.00;1.00
506;DHT22;551;48.524;9.056;2024-03-08T00:02:59;5.00;1.00
506;DHT22;551;48.524;9.056;2024-03-08T00:05:27;4.90;1.00
506;DHT22;551;48.524;9.056;2024-03-08T00:07:53;4.90;1.00
506;DHT22;551;48.524;9.056;2024-03-08T00:10:18;4.80;1.00
506;DHT22;551;48.524;9.056;2024-03-08T00:12:46;4.80;1.00
506;DHT22;551;48.524;9.056;2024-03-08T00:15:13;4.70;1.00
506;DHT22;551;48.524;9.056;2024-03-08T00:17:40;4.80;1.00
506;DHT22;551;48.524;9.056;2024-03-08T00:20:08;4.70;1.00
506;DHT22;551;48.524;9.056;2024-03-08T00:25:02;4.70;1.00
506;DHT22;551;48.524;9.056;2024-03-08T00:27:28;4.60;1.00
506;DHT22;551;48.524;9.056;2024-03-08T00:29:59;4.60;1.00
506;DHT22;551;48.524;9.056;2024-03-08T00:32:26;4.50;1.00
506;DHT22;551;48.524;9.056;2024-03-08T00:34:53;4.50;1.00
506;DHT22;551;48.524;9.056;2024-03-08T00:37:20;4.40;1.00
506;DHT22;551;48.524;9.056;2024-03-08T00:39:50;4.40;1.00
506;DHT22;551;48.524;9.056;2024-03-08T00:42:16;4.40;1.00
506;DHT22;551;48.524;9.056;2024-03-08T00:44:42;4.30;1.00
506;DHT22;551;48.524;9.056;2024-03-08T00:47:07;4.30;1.00
506;DHT22;551;48.524;9.056;2024-03-08T00:49:33;4.30;1.00
506;DHT22;551;48.524;9.056;2024-03-08T00:51:58;4.30;1.00
506;DHT22;551;48.524;9.056;2024-03-08T00:54:24;4.20;1.00
506;DHT22;551;48.524;9.056;2024-03-08T00:56:49;4.10;1.00
506;DHT22;551;48.524;9.056;2024-03-08T00:59:15;4.00;1.00
506;DHT22;551;48.524;9.056;2024-03-08T01:01:41;4.10;1.00
506;DHT22;551;48.524;9.056;2024-03-08T01:04:07;4.00;1.00
506;DHT22;551;48.524;9.056;2024-03-08T01:06:33;4.00;1.00
506;DHT22;551;48.524;9.056;2024-03-08T01:08:59;3.90;1.00
506;DHT22;551;48.524;9.056;2024-03-08T01:11:25;3.80;1.00
506;DHT22;551;48.524;9.056;2024-03-08T01:13:50;3.80;1.00
506;DHT22;551;48.524;9.056;2024-03-08T01:16:16;3.80;1.00
506;DHT22;551;48.524;9.056;2024-03-08T01:18:47;3.70;1.00
506;DHT22;551;48.524;9.056;2024-03-08T01:21:12;3.70;1.00
506;DHT22;551;48.524;9.056;2024-03-08T01:23:38;3.70;1.00
506;DHT22;551;48.524;9.056;2024-03-08T01:26:04;3.70;1.00
506;DHT22;551;48.524;9.056;2024-03-08T01:28:30;3.60;1.00
506;DHT22;551;48.524;9.056;2024-03-08T01:30:55;3.60;1.00
506;DHT22;551;48.524;9.056;2024-03-08T01:33:26;3.60;1.00
506;DHT22;551;48.524;9.056;2024-03-08T01:35:52;3.50;1.00
506;DHT22;551;48.524;9.056;2024-03-08T01:38:19;3.50;1.00
506;DHT22;551;48.524;9.056;2024-03-08T01:40:44;3.50;1.00
506;DHT22;551;48.524;9.056;2024-03-08T01:43:20;3.50;1.00
506;DHT22;551;48.524;9.056;2024-03-08T01:45:47;3.40;1.00
506;DHT22;551;48.524;9.056;2024-03-08T01:48:14;3.30;1.00
506;DHT22;551;48.524;9.056;2024-03-08T01:50:40;3.30;1.00
506;DHT22;551;48.524;9.056;2024-03-08T01:53:07;3.30;1.00
506;DHT22;551;48.524;9.056;2024-03-08T01:55:33;3.20;1.00
506;DHT22;551;48.524;9.056;2024-03-08T01:58:01;3.20;1.00
506;DHT22;551;48.524;9.056;2024-03-08T02:00:28;3.20;1.00
506;DHT22;551;48.524;9.056;2024-03-08T02:02:55;3.10;1.00
506;DHT22;551;48.524;9.056;2024-03-08T02:05:23;3.10;1.00
506;DHT22;551;48.524;9.056;2024-03-08T02:07:48;3.10;1.00
506;DHT22;551;48.524;9.056;2024-03-08T02:10:14;3.00;1.00
506;DHT22;551;48.524;9.056;2024-03-08T02:12:40;3.00;1.00
506;DHT22;551;48.524;9.056;2024-03-08T02:15:06;3.00;1.00
506;DHT22;551;48.524;9.056;2024-03-08T02:17:32;3.00;1.00
506;DHT22;551;48.524;9.056;2024-03-08T02:20:00;3.00;1.00
506;DHT22;551;48.524;9.056;2024-03-08T02:22:30;3.00;1.00
506;DHT22;551;48.524;9.056;2024-03-08T02:24:58;3.00;1.00
506;DHT22;551;48.524;9.056;2024-03-08T02:27:24;2.90;1.00
506;DHT22;551;48.524;9.056;2024-03-08T02:29:55;2.90;1.00
506;DHT22;551;48.524;9.056;2024-03-08T02:32:21;2.90;1.00
506;DHT22;551;48.524;9.056;2024-03-08T02:34:47;2.90;1.00
506;DHT22;551;48.524;9.056;2024-03-08T02:37:13;2.80;1.00
506;DHT22;551;48.524;9.056;2024-03-08T02:39:38;2.80;1.00
506;DHT22;551;48.524;9.056;2024-03-08T02:42:04;2.80;1.00
506;DHT22;551;48.524;9.056;2024-03-08T02:44:30;2.80;1.00
506;DHT22;551;48.524;9.056;2024-03-08T02:46:55;2.70;1.00
506;DHT22;551;48.524;9.056;2024-03-08T02:49:21;2.70;1.00
506;DHT22;551;48.524;9.056;2024-03-08T02:51:46;2.70;1.00
506;DHT22;551;48.524;9.056;2024-03-08T02:54:12;2.60;1.00
506;DHT22;551;48.524;9.056;2024-03-08T02:56:37;2.60;1.00
506;DHT22;551;48.524;9.056;2024-03-08T02:59:03;2.60;1.00
506;DHT22;551;48.524;9.056;2024-03-08T03:01:28;2.60;1.00
506;DHT22;551;48.524;9.056;2024-03-08T03:03:54;2.60;1.00
506;DHT22;551;48.524;9.056;2024-03-08T03:06:19;2.60;1.00
506;DHT22;551;48.524;9.056;2024-03-08T03:08:46;2.60;1.00
506;DHT22;551;48.524;9.056;2024-03-08T03:11:12;2.60;1.00
506;DHT22;551;48.524;9.056;2024-03-08T03:13:39;2.50;1.00
506;DHT22;551;48.524;9.056;2024-03-08T03:16:05;2.50;1.00
506;DHT22;551;48.524;9.056;2024-03-08T03:18:31;2.50;1.00
506;DHT22;551;48.524;9.056;2024-03-08T03:20:58;2.50;1.00
506;DHT22;551;48.524;9.056;2024-03-08T03:23:23;2.40;1.00
506;DHT22;551;48.524;9.056;2024-03-08T03:25:51;2.40;1.00
506;DHT22;551;48.524;9.056;2024-03-08T03:28:17;2.40;1.00
506;DHT22;551;48.524;9.056;2024-03-08T03:30:45;2.40;1.00
506;DHT22;551;48.524;9.056;2024-03-08T03:33:12;2.40;1.00
506;DHT22;551;48.524;9.056;2024-03-08T03:35:40;2.30;1.00
506;DHT22;551;48.524;9.056;2024-03-08T03:38:06;2.30;1.00
506;DHT22;551;48.524;9.056;2024-03-08T03:40:36;2.40;1.00
506;DHT22;551;48.524;9.056;2024-03-08T03:43:02;2.30;1.00
506;DHT22;551;48.524;9.056;2024-03-08T03:45:28;2.30;1.00
506;DHT22;551;48.524;9.056;2024-03-08T03:47:54;2.30;1.00
506;DHT22;551;48.524;9.056;2024-03-08T03:50:20;2.30;1.00
506;DHT22;551;48.524;9.056;2024-03-08T03:52:49;2.30;1.00
506;DHT22;551;48.524;9.056;2024-03-08T03:55:15;2.30;1.00
506;DHT22;551;48.524;9.056;2024-03-08T03:57:41;2.30;1.00
506;DHT22;551;48.524;9.056;2024-03-08T04:00:08;2.30;1.00
506;DHT22;551;48.524;9.056;2024-03-08T04:02:39;2.30;1.00
506;DHT22;551;48.524;9.056;2024-03-08T04:05:07;2.30;1.00
506;DHT22;551;48.524;9.056;2024-03-08T04:07:33;2.20;1.00
506;DHT22;551;48.524;9.056;2024-03-08T04:10:00;2.20;1.00
506;DHT22;551;48.524;9.056;2024-03-08T04:12:25;2.30;1.00
506;DHT22;551;48.524;9.056;2024-03-08T04:14:51;2.30;1.00
506;DHT22;551;48.524;9.056;2024-03-08T04:17:16;2.30;1.00
506;DHT22;551;48.524;9.056;2024-03-08T04:19:43;2.20;1.00
506;DHT22;551;48.524;9.056;2024-03-08T04:22:09;2.20;1.00
506;DHT22;551;48.524;9.056;2024-03-08T04:24:34;2.20;1.00
506;DHT22;551;48.524;9.056;2024-03-08T04:27:00;2.20;1.00
506;DHT22;551;48.524;9.056;2024-03-08T04:29:26;2.20;1.00
506;DHT22;551;48.524;9.056;2024-03-08T04:31:52;2.10;1.00
506;DHT22;551;48.524;9.056;2024-03-08T04:34:20;2.20;1.00
506;DHT22;551;48.524;9.056;2024-03-08T04:36:46;2.20;1.00
506;DHT22;551;48.524;9.056;2024-03-08T04:39:12;2.30;1.00
506;DHT22;551;48.524;9.056;2024-03-08T04:41:38;2.40;1.00
506;DHT22;551;48.524;9.056;2024-03-08T04:44:04;2.40;1.00
506;DHT22;551;48.524;9.056;2024-03-08T04:46:30;2.50;1.00
506;DHT22;551;48.524;9.056;2024-03-08T04:48:55;2.60;1.00
506;DHT22;551;48.524;9.056;2024-03-08T04:51:21;2.60;1.00
506;DHT22;551;48.524;9.056;2024-03-08T04:53:46;2.70;1.00
506;DHT22;551;48.524;9.056;2024-03-08T04:56:12;2.80;1.00
506;DHT22;551;48.524;9.056;2024-03-08T04:58:37;2.80;1.00
506;DHT22;551;48.524;9.056;2024-03-08T05:01:03;2.80;1.00
506;DHT22;551;48.524;9.056;2024-03-08T05:03:29;2.90;1.00
506;DHT22;551;48.524;9.056;2024-03-08T05:05:55;3.00;1.00
506;DHT22;551;48.524;9.056;2024-03-08T05:08:21;3.10;1.00
506;DHT22;551;48.524;9.056;2024-03-08T05:10:47;3.20;1.00
506;DHT22;551;48.524;9.056;2024-03-08T05:13:12;3.30;1.00
506;DHT22;551;48.524;9.056;2024-03-08T05:15:41;3.40;1.00
506;DHT22;551;48.524;9.056;2024-03-08T05:18:07;3.40;1.00
506;DHT22;551;48.524;9.056;2024-03-08T05:20:33;3.50;1.00
506;DHT22;551;48.524;9.056;2024-03-08T05:22:59;3.50;1.00
506;DHT22;551;48.524;9.056;2024-03-08T05:25:25;3.60;1.00
506;DHT22;551;48.524;9.056;2024-03-08T05:27:51;3.70;1.00
506;DHT22;551;48.524;9.056;2024-03-08T05:30:17;3.70;1.00
506;DHT22;551;48.524;9.056;2024-03-08T05:32:42;3.80;1.00
506;DHT22;551;48.524;9.056;2024-03-08T05:35:11;3.80;1.00
506;DHT22;551;48.524;9.056;2024-03-08T05:37:38;3.80;1.00
506;DHT22;551;48.524;9.056;2024-03-08T05:40:05;3.80;1.00
506;DHT22;551;48.524;9.056;2024-03-08T05:42:34;3.90;1.00
506;DHT22;551;48.524;9.056;2024-03-08T05:45:00;3.90;1.00
506;DHT22;551;48.524;9.056;2024-03-08T05:47:26;3.80;1.00
506;DHT22;551;48.524;9.056;2024-03-08T05:49:51;3.80;1.00
506;DHT22;551;48.524;9.056;2024-03-08T05:52:19;3.80;1.00
506;DHT22;551;48.524;9.056;2024-03-08T05:54:44;3.90;1.00
506;DHT22;551;48.524;9.056;2024-03-08T05:57:11;3.90;1.00
506;DHT22;551;48.524;9.056;2024-03-08T05:59:36;3.90;1.00
506;DHT22;551;48.524;9.056;2024-03-08T06:02:02;3.90;1.00
506;DHT22;551;48.524;9.056;2024-03-08T06:04:28;3.90;1.00
506;DHT22;551;48.524;9.056;2024-03-08T06:06:54;3.90;1.00
506;DHT22;551;48.524;9.056;2024-03-08T06:09:22;4.00;1.00
506;DHT22;551;48.524;9.056;2024-03-08T06:11:49;4.00;1.00
506;DHT22;551;48.524;9.056;2024-03-08T06:14:14;4.00;1.00
506;DHT22;551;48.524;9.056;2024-03-08T06:16:47;4.00;1.00
506;DHT22;551;48.524;9.056;2024-03-08T06:19:13;4.00;1.00
506;DHT22;551;48.524;9.056;2024-03-08T06:21:39;4.00;1.00
506;DHT22;551;48.524;9.056;2024-03-08T06:24:05;4.10;1.00
506;DHT22;551;48.524;9.056;2024-03-08T06:26:30;4.10;1.00
506;DHT22;551;48.524;9.056;2024-03-08T06:28:56;4.20;1.00
506;DHT22;551;48.524;9.056;2024-03-08T06:31:22;4.20;1.00
506;DHT22;551;48.524;9.056;2024-03-08T06:33:48;4.30;1.00
506;DHT22;551;48.524;9.056;2024-03-08T06:36:18;4.30;1.00
506;DHT22;551;48.524;9.056;2024-03-08T06:38:49;4.40;1.00
506;DHT22;551;48.524;9.056;2024-03-08T06:41:15;4.50;1.00
506;DHT22;551;48.524;9.056;2024-03-08T06:43:45;4.50;1.00
506;DHT22;551;48.524;9.056;2024-03-08T06:46:11;4.60;1.00
506;DHT22;551;48.524;9.056;2024-03-08T06:48:39;4.70;1.00
506;DHT22;551;48.524;9.056;2024-03-08T06:51:05;4.70;1.00
506;DHT22;551;48.524;9.056;2024-03-08T06:53:31;4.80;1.00
506;DHT22;551;48.524;9.056;2024-03-08T06:55:57;4.90;1.00
506;DHT22;551;48.524;9.056;2024-03-08T06:58:23;5.00;1.00
506;DHT22;551;48.524;9.056;2024-03-08T07:00:48;5.00;1.00
506;DHT22;551;48.524;9.056;2024-03-08T07:03:17;5.00;1.00
506;DHT22;551;48.524;9.056;2024-03-08T07:05:43;5.00;1.00
506;DHT22;551;48.524;9.056;2024-03-08T07:08:08;5.10;1.00
506;DHT22;551;48.524;9.056;2024-03-08T07:10:34;5.10;1.00
506;DHT22;551;48.524;9.056;2024-03-08T07:13:00;5.20;1.00
506;DHT22;551;48.524;9.056;2024-03-08T07:15:27;5.40;1.00
506;DHT22;551;48.524;9.056;2024-03-08T07:17:53;5.30;1.00
506;DHT22;551;48.524;9.056;2024-03-08T07:20:19;5.40;1.00
506;DHT22;551;48.524;9.056;2024-03-08T07:22:48;5.50;1.00
506;DHT22;551;48.524;9.056;2024-03-08T07:25:16;5.50;1.00
506;DHT22;551;48.524;9.056;2024-03-08T07:27:48;5.50;1.00
506;DHT22;551;48.524;9.056;2024-03-08T07:30:13;5.60;1.00
506;DHT22;551;48.524;9.056;2024-03-08T07:32:59;5.70;1.00
506;DHT22;551;48.524;9.056;2024-03-08T07:35:25;5.70;1.00
506;DHT22;551;48.524;9.056;2024-03-08T07:37:51;5.70;1.00
506;DHT22;551;48.524;9.056;2024-03-08T07:40:18;5.70;1.00
506;DHT22;551;48.524;9.056;2024-03-08T07:42:43;5.80;1.00
506;DHT22;551;48.524;9.056;2024-03-08T07:45:09;5.90;1.00
506;DHT22;551;48.524;9.056;2024-03-08T07:47:35;6.00;1.00
506;DHT22;551;48.524;9.056;2024-03-08T07:50:01;6.20;1.00
506;DHT22;551;48.524;9.056;2024-03-08T07:52:27;6.30;1.00
506;DHT22;551;48.524;9.056;2024-03-08T07:54:53;6.20;1.00
506;DHT22;551;48.524;9.056;2024-03-08T07:57:19;6.30;1.00
506;DHT22;551;48.524;9.056;2024-03-08T07:59:45;6.30;1.00
506;DHT22;551;48.524;9.056;2024-03-08T08:02:11;6.40;1.00
506;DHT22;551;48.524;9.056;2024-03-08T08:04:36;6.40;1.00
506;DHT22;551;48.524;9.056;2024-03-08T08:07:02;6.50;1.00
506;DHT22;551;48.524;9.056;2024-03-08T08:09:28;6.50;1.00
506;DHT22;551;48.524;9.056;2024-03-08T08:11:56;6.60;1.00
506;DHT22;551;48.524;9.056;2024-03-08T08:14:22;6.70;1.00
506;DHT22;551;48.524;9.056;2024-03-08T08:16:48;6.80;1.00
506;DHT22;551;48.524;9.056;2024-03-08T08:19:15;6.80;1.00
506;DHT22;551;48.524;9.056;2024-03-08T08:21:41;7.10;1.00
506;DHT22;551;48.524;9.056;2024-03-08T08:24:07;7.30;1.00
506;DHT22;551;48.524;9.056;2024-03-08T08:26:32;7.20;1.00
506;DHT22;551;48.524;9.056;2024-03-08T08:28:59;7.30;1.00
506;DHT22;551;48.524;9.056;2024-03-08T08:31:25;7.40;1.00
506;DHT22;551;48.524;9.056;2024-03-08T08:33:51;7.30;1.00
506;DHT22;551;48.524;9.056;2024-03-08T08:36:26;7.30;1.00
506;DHT22;551;48.524;9.056;2024-03-08T08:38:51;7.10;1.00
506;DHT22;551;48.524;9.056;2024-03-08T08:41:21;7.10;1.00
506;DHT22;551;48.524;9.056;2024-03-08T08:43:47;7.10;1.00
506;DHT22;551;48.524;9.056;2024-03-08T08:46:17;7.20;1.00
506;DHT22;551;48.524;9.056;2024-03-08T08:48:42;7.20;1.00
506;DHT22;551;48.524;9.056;2024-03-08T08:51:13;7.30;1.00
506;DHT22;551;48.524;9.056;2024-03-08T08:53:39;7.30;1.00
506;DHT22;551;48.524;9.056;2024-03-08T08:56:11;7.30;1.00
506;DHT22;551;48.524;9.056;2024-03-08T08:58:39;7.30;1.00
506;DHT22;551;48.524;9.056;2024-03-08T09:01:05;7.40;1.00
506;DHT22;551;48.524;9.056;2024-03-08T09:03:30;7.30;1.00
506;DHT22;551;48.524;9.056;2024-03-08T09:05:56;7.40;1.00
506;DHT22;551;48.524;9.056;2024-03-08T09:08:21;7.40;1.00
506;DHT22;551;48.524;9.056;2024-03-08T09:10:48;7.30;1.00
506;DHT22;551;48.524;9.056;2024-03-08T09:13:14;7.40;1.00
506;DHT22;551;48.524;9.056;2024-03-08T09:15:39;7.40;1.00
506;DHT22;551;48.524;9.056;2024-03-08T09:18:06;7.50;1.00
506;DHT22;551;48.524;9.056;2024-03-08T09:20:31;7.50;1.00
506;DHT22;551;48.524;9.056;2024-03-08T09:22:57;7.60;1.00
506;DHT22;551;48.524;9.056;2024-03-08T09:25:23;7.80;1.00
506;DHT22;551;48.524;9.056;2024-03-08T09:27:48;7.80;1.00
506;DHT22;551;48.524;9.056;2024-03-08T09:30:15;7.90;1.00
506;DHT22;551;48.524;9.056;2024-03-08T09:32:40;8.00;1.00
506;DHT22;551;48.524;9.056;2024-03-08T09:35:06;8.20;1.00
506;DHT22;551;48.524;9.056;2024-03-08T09:37:35;8.40;1.00
506;DHT22;551;48.524;9.056;2024-03-08T09:40:01;8.50;1.00
506;DHT22;551;48.524;9.056;2024-03-08T09:42:30;8.40;1.00
506;DHT22;551;48.524;9.056;2024-03-08T09:44:57;8.40;1.00
506;DHT22;551;48.524;9.056;2024-03-08T09:47:25;8.40;1.00
506;DHT22;551;48.524;9.056;2024-03-08T09:49:54;8.30;1.00
506;DHT22;551;48.524;9.056;2024-03-08T09:52:20;8.30;1.00
506;DHT22;551;48.524;9.056;2024-03-08T09:54:45;8.20;1.00
506;DHT22;551;48.524;9.056;2024-03-08T09:57:11;8.50;1.00
506;DHT22;551;48.524;9.056;2024-03-08T09:59:37;8.70;1.00
506;DHT22;551;48.524;9.056;2024-03-08T10:02:03;8.80;1.00
506;DHT22;551;48.524;9.056;2024-03-08T10:04:30;8.80;1.00
506;DHT22;551;48.524;9.056;2024-03-08T10:06:58;8.80;1.00
506;DHT22;551;48.524;9.056;2024-03-08T10:09:24;8.80;1.00
506;DHT22;551;48.524;9.056;2024-03-08T10:11:59;8.80;1.00
506;DHT22;551;48.524;9.056;2024-03-08T10:14:28;8.80;1.00
506;DHT22;551;48.524;9.056;2024-03-08T10:16:53;8.80;1.00
506;DHT22;551;48.524;9.056;2024-03-08T10:19:20;8.80;1.00
506;DHT22;551;48.524;9.056;2024-03-08T10:21:49;8.90;1.00
506;DHT22;551;48.524;9.056;2024-03-08T10:24:14;9.10;1.00
506;DHT22;551;48.524;9.056;2024-03-08T10:26:40;9.20;1.00
506;DHT22;551;48.524;9.056;2024-03-08T10:29:09;9.40;1.00
506;DHT22;551;48.524;9.056;2024-03-08T10:31:34;9.60;1.00
506;DHT22;551;48.524;9.056;2024-03-08T10:34:00;9.90;1.00
506;DHT22;551;48.524;9.056;2024-03-08T10:36:26;10.20;1.00
506;DHT22;551;48.524;9.056;2024-03-08T10:38:53;10.50;1.00
506;DHT22;551;48.524;9.056;2024-03-08T10:41:19;10.80;1.00
506;DHT22;551;48.524;9.056;2024-03-08T10:49:30;11.10;1.00
506;DHT22;551;48.524;9.056;2024-03-08T10:51:56;11.20;1.00
506;DHT22;551;48.524;9.056;2024-03-08T10:54:23;11.20;1.00
506;DHT22;551;48.524;9.056;2024-03-08T10:56:50;11.30;1.00
506;DHT22;551;48.524;9.056;2024-03-08T10:59:16;11.50;1.00
506;DHT22;551;48.524;9.056;2024-03-08T11:01:42;11.60;1.00
506;DHT22;551;48.524;9.056;2024-03-08T11:04:08;11.70;1.00
506;DHT22;551;48.524;9.056;2024-03-08T11:11:47;12.10;1.00
506;DHT22;551;48.524;9.056;2024-03-08T11:14:44;12.60;1.00
506;DHT22;551;48.524;9.056;2024-03-08T11:17:13;13.10;1.00
506;DHT22;551;48.524;9.056;2024-03-08T11:19:46;13.30;1.00
506;DHT22;551;48.524;9.056;2024-03-08T11:22:21;13.50;1.00
506;DHT22;551;48.524;9.056;2024-03-08T11:24:49;13.50;1.00
506;DHT22;551;48.524;9.056;2024-03-08T11:27:15;13.80;1.00
506;DHT22;551;48.524;9.056;2024-03-08T11:29:40;13.90;1.00
506;DHT22;551;48.524;9.056;2024-03-08T11:32:15;13.80;1.00
506;DHT22;551;48.524;9.056;2024-03-08T11:34:45;14.00;1.00
506;DHT22;551;48.524;9.056;2024-03-08T11:39:52;17.10;1.00
506;DHT22;551;48.524;9.056;2024-03-08T11:42:19;19.00;1.00
506;DHT22;551;48.524;9.056;2024-03-08T11:44:46;20.30;1.00
506;DHT22;551;48.524;9.056;2024-03-08T11:47:13;21.30;1.00
506;DHT22;551;48.524;9.056;2024-03-08T11:49:40;21.00;1.00
506;DHT22;551;48.524;9.056;2024-03-08T11:52:11;20.00;1.00
506;DHT22;551;48.524;9.056;2024-03-08T11:54:38;20.30;1.00
506;DHT22;551;48.524;9.056;2024-03-08T11:57:04;21.00;1.00
506;DHT22;551;48.524;9.056;2024-03-08T11:59:30;21.00;1.00
506;DHT22;551;48.524;9.056;2024-03-08T12:02:00;21.30;1.00
506;DHT22;551;48.524;9.056;2024-03-08T12:04:27;21.70;1.00
506;DHT22;551;48.524;9.056;2024-03-08T12:06:53;22.50;1.00
506;DHT22;551;48.524;9.056;2024-03-08T12:09:18;22.70;1.00
506;DHT22;551;48.524;9.056;2024-03-08T12:11:50;23.40;1.00
506;DHT22;551;48.524;9.056;2024-03-08T12:14:16;23.40;1.00
506;DHT22;551;48.524;9.056;2024-03-08T12:16:42;23.60;1.00
506;DHT22;551;48.524;9.056;2024-03-08T12:19:08;24.00;1.00
506;DHT22;551;48.524;9.056;2024-03-08T12:21:36;23.80;1.00
506;DHT22;551;48.524;9.056;2024-03-08T12:24:06;24.30;1.00
506;DHT22;551;48.524;9.056;2024-03-08T12:26:38;24.40;1.00
506;DHT22;551;48.524;9.056;2024-03-08T12:29:19;24.70;1.00
506;DHT22;551;48.524;9.056;2024-03-08T12:32:14;24.70;1.00
506;DHT22;551;48.524;9.056;2024-03-08T12:34:40;25.10;1.00
506;DHT22;551;48.524;9.056;2024-03-08T12:37:06;24.90;1.00
506;DHT22;551;48.524;9.056;2024-03-08T12:39:32;24.80;1.00
506;DHT22;551;48.524;9.056;2024-03-08T12:41:58;24.50;1.00
506;DHT22;551;48.524;9.056;2024-03-08T12:44:24;24.30;1.00
506;DHT22;551;48.524;9.056;2024-03-08T12:46:51;24.20;1.00
506;DHT22;551;48.524;9.056;2024-03-08T12:49:17;24.00;1.00
506;DHT22;551;48.524;9.056;2024-03-08T12:51:43;24.30;1.00
506;DHT22;551;48.524;9.056;2024-03-08T12:54:10;24.40;1.00
506;DHT22;551;48.524;9.056;2024-03-08T12:56:36;24.50;1.00
506;DHT22;551;48.524;9.056;2024-03-08T12:59:04;24.80;1.00
506;DHT22;551;48.524;9.056;2024-03-08T13:01:30;24.60;1.00
506;DHT22;551;48.524;9.056;2024-03-08T13:03:57;24.30;1.00
506;DHT22;551;48.524;9.056;2024-03-08T13:06:28;24.10;1.00
506;DHT22;551;48.524;9.056;2024-03-08T13:08:54;23.80;1.00
506;DHT22;551;48.524;9.056;2024-03-08T13:11:22;24.20;1.00
506;DHT22;551;48.524;9.056;2024-03-08T13:13:49;24.20;1.00
506;DHT22;551;48.524;9.056;2024-03-08T13:16:15;24.40;1.00
506;DHT22;551;48.524;9.056;2024-03-08T13:18:41;24.20;1.00
506;DHT22;551;48.524;9.056;2024-03-08T13:21:12;24.30;1.00
506;DHT22;551;48.524;9.056;2024-03-08T13:23:41;24.40;1.00
506;DHT22;551;48.524;9.056;2024-03-08T13:26:11;24.20;1.00
506;DHT22;551;48.524;9.056;2024-03-08T13:28:41;24.00;1.00
506;DHT22;551;48.524;9.056;2024-03-08T13:31:06;24.10;1.00
506;DHT22;551;48.524;9.056;2024-03-08T13:33:33;24.10;1.00
506;DHT22;551;48.524;9.056;2024-03-08T13:36:05;24.20;1.00
506;DHT22;551;48.524;9.056;2024-03-08T13:38:32;24.20;1.00
506;DHT22;551;48.524;9.056;2024-03-08T13:41:00;24.30;1.00
506;DHT22;551;48.524;9.056;2024-03-08T13:43:26;24.50;1.00
506;DHT22;551;48.524;9.056;2024-03-08T13:45:54;24.40;1.00
506;DHT22;551;48.524;9.056;2024-03-08T13:48:20;23.90;1.00
506;DHT22;551;48.524;9.056;2024-03-08T13:50:48;24.20;1.00
506;DHT22;551;48.524;9.056;2024-03-08T13:53:14;24.00;1.00
506;DHT22;551;48.524;9.056;2024-03-08T13:55:40;23.60;1.00
506;DHT22;551;48.524;9.056;2024-03-08T13:58:06;23.40;1.00
506;DHT22;551;48.524;9.056;2024-03-08T14:00:35;23.50;1.00
506;DHT22;551;48.524;9.056;2024-03-08T14:03:01;23.20;1.00
506;DHT22;551;48.524;9.056;2024-03-08T14:05:31;22.60;1.00
506;DHT22;551;48.524;9.056;2024-03-08T14:08:00;21.70;1.00
506;DHT22;551;48.524;9.056;2024-03-08T14:10:29;20.30;1.00
506;DHT22;551;48.524;9.056;2024-03-08T14:12:59;19.20;1.00
506;DHT22;551;48.524;9.056;2024-03-08T14:15:26;18.30;1.00
506;DHT22;551;48.524;9.056;2024-03-08T14:17:55;17.20;1.00
506;DHT22;551;48.524;9.056;2024-03-08T14:20:22;16.40;1.00
506;DHT22;551;48.524;9.056;2024-03-08T14:22:51;15.80;1.00
506;DHT22;551;48.524;9.056;2024-03-08T14:25:17;15.50;1.00
506;DHT22;551;48.524;9.056;2024-03-08T14:27:44;15.00;1.00
506;DHT22;551;48.524;9.056;2024-03-08T14:30:11;14.70;1.00
506;DHT22;551;48.524;9.056;2024-03-08T14:32:36;14.50;1.00
506;DHT22;551;48.524;9.056;2024-03-08T14:35:05;14.30;1.00
506;DHT22;551;48.524;9.056;2024-03-08T14:37:31;14.10;1.00
506;DHT22;551;48.524;9.056;2024-03-08T14:39:56;13.90;1.00
506;DHT22;551;48.524;9.056;2024-03-08T14:42:22;13.80;1.00
506;DHT22;551;48.524;9.056;2024-03-08T14:44:51;13.60;1.00
506;DHT22;551;48.524;9.056;2024-03-08T14:47:17;13.50;1.00
506;DHT22;551;48.524;9.056;2024-03-08T14:49:43;13.50;1.00
506;DHT22;551;48.524;9.056;2024-03-08T14:52:08;13.50;1.00
506;DHT22;551;48.524;9.056;2024-03-08T14:54:53;13.50;1.00
506;DHT22;551;48.524;9.056;2024-03-08T14:57:19;13.40;1.00
506;DHT22;551;48.524;9.056;2024-03-08T14:59:44;13.40;1.00
506;DHT22;551;48.524;9.056;2024-03-08T15:02:10;13.20;1.00
506;DHT22;551;48.524;9.056;2024-03-08T15:04:36;13.10;1.00
506;DHT22;551;48.524;9.056;2024-03-08T15:07:02;13.10;1.00
506;DHT22;551;48.524;9.056;2024-03-08T15:09:28;13.10;1.00
506;DHT22;551;48.524;9.056;2024-03-08T15:11:53;13.30;1.00
506;DHT22;551;48.524;9.056;2024-03-08T15:14:20;13.30;1.00
506;DHT22;551;48.524;9.056;2024-03-08T15:16:46;13.20;1.00
506;DHT22;551;48.524;9.056;2024-03-08T15:19:13;13.10;1.00
506;DHT22;551;48.524;9.056;2024-03-08T15:21:40;13.00;1.00
506;DHT22;551;48.524;9.056;2024-03-08T15:24:08;13.00;1.00
506;DHT22;551;48.524;9.056;2024-03-08T15:26:41;12.90;1.00
506;DHT22;551;48.524;9.056;2024-03-08T15:29:06;12.90;1.00
506;DHT22;551;48.524;9.056;2024-03-08T15:31:35;12.90;1.00
506;DHT22;551;48.524;9.056;2024-03-08T15:34:00;12.80;1.00
506;DHT22;551;48.524;9.056;2024-03-08T15:36:30;12.80;1.00
506;DHT22;551;48.524;9.056;2024-03-08T15:38:59;12.90;1.00
506;DHT22;551;48.524;9.056;2024-03-08T15:41:25;12.90;1.00
506;DHT22;551;48.524;9.056;2024-03-08T15:43:52;12.90;1.00
506;DHT22;551;48.524;9.056;2024-03-08T15:46:18;12.90;1.00
506;DHT22;551;48.524;9.056;2024-03-08T15:48:48;12.90;1.00
506;DHT22;551;48.524;9.056;2024-03-08T15:51:14;12.80;1.00
506;DHT22;551;48.524;9.056;2024-03-08T15:53:41;12.70;1.00
506;DHT22;551;48.524;9.056;2024-03-08T15:56:07;12.70;1.00
506;DHT22;551;48.524;9.056;2024-03-08T15:58:35;12.80;1.00
506;DHT22;551;48.524;9.056;2024-03-08T16:01:01;12.70;1.00
506;DHT22;551;48.524;9.056;2024-03-08T16:03:29;12.60;1.00
506;DHT22;551;48.524;9.056;2024-03-08T16:05:55;12.40;1.00
506;DHT22;551;48.524;9.056;2024-03-08T16:08:21;12.40;1.00
506;DHT22;551;48.524;9.056;2024-03-08T16:10:52;12.30;1.00
506;DHT22;551;48.524;9.056;2024-03-08T16:13:23;12.30;1.00
506;DHT22;551;48.524;9.056;2024-03-08T16:15:57;12.20;1.00
506;DHT22;551;48.524;9.056;2024-03-08T16:18:24;12.10;1.00
506;DHT22;551;48.524;9.056;2024-03-08T16:20:53;12.10;1.00
506;DHT22;551;48.524;9.056;2024-03-08T16:23:20;12.10;1.00
506;DHT22;551;48.524;9.056;2024-03-08T16:25:46;12.10;1.00
506;DHT22;551;48.524;9.056;2024-03-08T16:28:13;12.00;1.00
506;DHT22;551;48.524;9.056;2024-03-08T16:30:40;11.90;1.00
506;DHT22;551;48.524;9.056;2024-03-08T16:33:08;11.70;1.00
506;DHT22;551;48.524;9.056;2024-03-08T16:35:34;11.60;1.00
506;DHT22;551;48.524;9.056;2024-03-08T16:38:01;11.60;1.00
506;DHT22;551;48.524;9.056;2024-03-08T16:40:27;11.50;1.00
506;DHT22;551;48.524;9.056;2024-03-08T16:42:53;11.40;1.00
506;DHT22;551;48.524;9.056;2024-03-08T16:45:20;11.30;1.00
506;DHT22;551;48.524;9.056;2024-03-08T16:47:46;11.20;1.00
506;DHT22;551;48.524;9.056;2024-03-08T16:50:12;11.20;1.00
506;DHT22;551;48.524;9.056;2024-03-08T16:52:40;11.00;1.00
506;DHT22;551;48.524;9.056;2024-03-08T16:55:06;10.90;1.00
506;DHT22;551;48.524;9.056;2024-03-08T16:57:35;10.80;1.00
506;DHT22;551;48.524;9.056;2024-03-08T17:00:02;10.70;1.00
506;DHT22;551;48.524;9.056;2024-03-08T17:02:37;10.70;1.00
506;DHT22;551;48.524;9.056;2024-03-08T17:05:03;10.80;1.00
506;DHT22;551;48.524;9.056;2024-03-08T17:07:31;10.80;1.00
506;DHT22;551;48.524;9.056;2024-03-08T17:09:57;10.60;1.00
506;DHT22;551;48.524;9.056;2024-03-08T17:12:25;10.50;1.00
506;DHT22;551;48.524;9.056;2024-03-08T17:14:51;10.40;1.00
506;DHT22;551;48.524;9.056;2024-03-08T17:17:17;10.30;1.00